sensor_id;sensor_type;location;lat;lon;timestamp;pressure;altitude;pressure_sealevel;temperature;humidity
6096;BME280;25081;42.698;23.298;2023-07-24T00:00:25;95456.03;;;21.52;68.30
6096;BME280;25081;42.698;23.298;2023-07-24T00:02:36;95459.00;;;21.51;68.44
6096;BME280;25081;42.698;23.298;2023-07-24T00:04:46;95455.01;;;21.40;68.93
6096;BME280;25081;42.698;23.298;2023-07-24T00:06:56;95459.89;;;21.43;68.92
6096;BME280;25081;42.698;23.298;2023-07-24T00:09:07;95455.25;;;21.47;68.80
6096;BME280;25081;42.698;23.298;2023-07-24T00:11:17;95453.08;;;21.46;68.72
6096;BME280;25081;42.698;23.298;2023-07-24T00:13:28;95456.63;;;21.44;69.04
6096;BME280;25081;42.698;23.298;2023-07-24T00:15:40;95453.31;;;21.50;68.78
6096;BME280;25081;42.698;23.298;2023-07-24T00:17:51;95447.66;;;21.46;68.95
6096;BME280;25081;42.698;23.298;2023-07-24T00:20:01;95453.38;;;21.45;69.06
6096;BME280;25081;42.698;23.298;2023-07-24T00:22:11;95457.25;;;21.33;69.29
6096;BME280;25081;42.698;23.298;2023-07-24T00:24:22;95456.73;;;21.26;69.71
6096;BME280;25081;42.698;23.298;2023-07-24T00:26:32;95459.45;;;21.26;69.75
6096;BME280;25081;42.698;23.298;2023-07-24T00:28:43;95462.97;;;21.24;69.66
6096;BME280;25081;42.698;23.298;2023-07-24T00:30:53;95458.91;;;21.27;69.16
6096;BME280;25081;42.698;23.298;2023-07-24T00:33:04;95454.28;;;21.25;68.86
6096;BME280;25081;42.698;23.298;2023-07-24T00:35:15;95450.00;;;21.16;68.89
6096;BME280;25081;42.698;23.298;2023-07-24T00:37:26;95455.70;;;21.14;68.63
6096;BME280;25081;42.698;23.298;2023-07-24T00:39:36;95453.00;;;21.09;68.67
6096;BME280;25081;42.698;23.298;2023-07-24T00:41:47;95456.23;;;21.11;68.21
6096;BME280;25081;42.698;23.298;2023-07-24T00:43:57;95445.11;;;21.13;67.84
6096;BME280;25081;42.698;23.298;2023-07-24T00:46:08;95446.77;;;21.09;67.84
6096;BME280;25081;42.698;23.298;2023-07-24T00:48:18;95448.94;;;21.09;67.37
6096;BME280;25081;42.698;23.298;2023-07-24T00:50:29;95447.07;;;21.02;66.74
6096;BME280;25081;42.698;23.298;2023-07-24T00:52:39;95447.07;;;21.02;67.18
6096;BME280;25081;42.698;23.298;2023-07-24T00:54:49;95451.15;;;21.05;66.94
6096;BME280;25081;42.698;23.298;2023-07-24T00:57:00;95446.53;;;21.05;66.69
6096;BME280;25081;42.698;23.298;2023-07-24T00:59:10;95454.11;;;21.03;66.77
6096;BME280;25081;42.698;23.298;2023-07-24T01:01:21;95451.16;;;21.00;67.02
6096;BME280;25081;42.698;23.298;2023-07-24T01:03:32;95449.26;;;21.00;66.75
6096;BME280;25081;42.698;23.298;2023-07-24T01:05:43;95449.23;;;21.03;66.42
6096;BME280;25081;42.698;23.298;2023-07-24T01:07:53;95444.14;;;20.96;66.46
6096;BME280;25081;42.698;23.298;2023-07-24T01:10:04;95443.86;;;20.98;66.67
6096;BME280;25081;42.698;23.298;2023-07-24T01:12:18;95437.36;;;20.94;67.03
6096;BME280;25081;42.698;23.298;2023-07-24T01:14:36;95434.12;;;20.92;67.49
6096;BME280;25081;42.698;23.298;2023-07-24T01:16:40;95439.88;;;20.80;67.67
6096;BME280;25081;42.698;23.298;2023-07-24T01:18:48;95439.33;;;20.80;67.57
6096;BME280;25081;42.698;23.298;2023-07-24T01:20:59;95440.12;;;20.83;67.77
6096;BME280;25081;42.698;23.298;2023-07-24T01:23:21;95430.42;;;20.72;67.78
6096;BME280;25081;42.698;23.298;2023-07-24T01:25:33;95429.61;;;20.72;67.72
6096;BME280;25081;42.698;23.298;2023-07-24T01:27:45;95429.88;;;20.73;67.61
6096;BME280;25081;42.698;23.298;2023-07-24T01:29:56;95429.10;;;20.67;67.86
6096;BME280;25081;42.698;23.298;2023-07-24T01:32:08;95427.19;;;20.65;67.65
6096;BME280;25081;42.698;23.298;2023-07-24T01:34:18;95422.31;;;20.65;67.57
6096;BME280;25081;42.698;23.298;2023-07-24T01:36:29;95425.05;;;20.62;67.58
6096;BME280;25081;42.698;23.298;2023-07-24T01:38:40;95423.95;;;20.63;67.73
6096;BME280;25081;42.698;23.298;2023-07-24T01:40:50;95429.90;;;20.65;67.72
6096;BME280;25081;42.698;23.298;2023-07-24T01:43:00;95449.69;;;20.68;67.60
6096;BME280;25081;42.698;23.298;2023-07-24T01:45:11;95455.35;;;20.72;67.64
6096;BME280;25081;42.698;23.298;2023-07-24T01:47:22;95462.15;;;20.64;67.79
6096;BME280;25081;42.698;23.298;2023-07-24T01:49:32;95456.77;;;20.54;68.11
6096;BME280;25081;42.698;23.298;2023-07-24T01:51:43;95451.35;;;20.54;68.15
6096;BME280;25081;42.698;23.298;2023-07-24T01:53:54;95444.08;;;20.47;68.23
6096;BME280;25081;42.698;23.298;2023-07-24T01:56:04;95450.33;;;20.29;69.02
6096;BME280;25081;42.698;23.298;2023-07-24T01:58:15;95446.53;;;20.30;69.14
6096;BME280;25081;42.698;23.298;2023-07-24T02:00:25;95453.28;;;20.33;69.11
6096;BME280;25081;42.698;23.298;2023-07-24T02:02:36;95447.30;;;20.36;69.04
6096;BME280;25081;42.698;23.298;2023-07-24T02:04:46;95450.34;;;20.22;69.21
6096;BME280;25081;42.698;23.298;2023-07-24T02:06:57;95447.91;;;20.20;69.41
6096;BME280;25081;42.698;23.298;2023-07-24T02:09:07;95448.73;;;20.13;69.79
6096;BME280;25081;42.698;23.298;2023-07-24T02:11:18;95446.27;;;20.17;69.82
6096;BME280;25081;42.698;23.298;2023-07-24T02:13:28;95441.69;;;20.12;69.86
6096;BME280;25081;42.698;23.298;2023-07-24T02:15:39;95446.56;;;20.13;70.03
6096;BME280;25081;42.698;23.298;2023-07-24T02:17:49;95450.87;;;20.16;69.97
6096;BME280;25081;42.698;23.298;2023-07-24T02:20:00;95447.38;;;20.18;69.93
6096;BME280;25081;42.698;23.298;2023-07-24T02:22:10;95445.47;;;20.21;69.93
6096;BME280;25081;42.698;23.298;2023-07-24T02:24:21;95444.08;;;20.26;69.70
6096;BME280;25081;42.698;23.298;2023-07-24T02:26:31;95446.80;;;20.24;69.53
6096;BME280;25081;42.698;23.298;2023-07-24T02:28:42;95443.84;;;20.28;69.38
6096;BME280;25081;42.698;23.298;2023-07-24T02:30:52;95443.55;;;20.24;69.59
6096;BME280;25081;42.698;23.298;2023-07-24T02:33:04;95440.05;;;20.21;69.93
6096;BME280;25081;42.698;23.298;2023-07-24T02:35:15;95438.71;;;20.19;69.86
6096;BME280;25081;42.698;23.298;2023-07-24T02:37:25;95434.09;;;20.17;69.88
6096;BME280;25081;42.698;23.298;2023-07-24T02:39:36;95434.94;;;20.10;70.15
6096;BME280;25081;42.698;23.298;2023-07-24T02:41:46;95440.61;;;20.06;70.27
6096;BME280;25081;42.698;23.298;2023-07-24T02:43:57;95446.58;;;20.03;70.57
6096;BME280;25081;42.698;23.298;2023-07-24T02:46:07;95440.07;;;20.06;70.53
6096;BME280;25081;42.698;23.298;2023-07-24T02:48:18;95440.89;;;20.09;70.54
6096;BME280;25081;42.698;23.298;2023-07-24T02:50:28;95436.84;;;20.09;70.31
6096;BME280;25081;42.698;23.298;2023-07-24T02:52:39;95442.23;;;20.07;70.45
6096;BME280;25081;42.698;23.298;2023-07-24T02:54:49;95439.80;;;20.05;70.50
6096;BME280;25081;42.698;23.298;2023-07-24T02:57:00;95433.86;;;20.03;70.41
6096;BME280;25081;42.698;23.298;2023-07-24T02:59:10;95439.00;;;19.97;70.78
6096;BME280;25081;42.698;23.298;2023-07-24T03:01:21;95437.94;;;19.98;70.98
6096;BME280;25081;42.698;23.298;2023-07-24T03:03:31;95442.51;;;20.05;70.80
6096;BME280;25081;42.698;23.298;2023-07-24T03:05:42;95438.45;;;20.05;70.98
6096;BME280;25081;42.698;23.298;2023-07-24T03:07:52;95436.58;;;19.93;70.86
6096;BME280;25081;42.698;23.298;2023-07-24T03:10:03;95432.55;;;19.80;71.38
6096;BME280;25081;42.698;23.298;2023-07-24T03:12:13;95431.72;;;19.75;71.72
6096;BME280;25081;42.698;23.298;2023-07-24T03:14:23;95440.39;;;19.79;71.76
6096;BME280;25081;42.698;23.298;2023-07-24T03:16:34;95437.95;;;19.90;71.38
6096;BME280;25081;42.698;23.298;2023-07-24T03:18:44;95440.35;;;19.97;71.29
6096;BME280;25081;42.698;23.298;2023-07-24T03:20:56;95433.87;;;20.00;71.04
6096;BME280;25081;42.698;23.298;2023-07-24T03:23:05;95443.63;;;19.99;71.00
6096;BME280;25081;42.698;23.298;2023-07-24T03:25:16;95435.23;;;19.93;71.07
6096;BME280;25081;42.698;23.298;2023-07-24T03:27:26;95437.39;;;19.86;71.09
6096;BME280;25081;42.698;23.298;2023-07-24T03:29:37;95441.20;;;19.80;71.40
6096;BME280;25081;42.698;23.298;2023-07-24T03:31:47;95443.08;;;19.84;71.26
6096;BME280;25081;42.698;23.298;2023-07-24T03:33:58;95450.39;;;19.91;71.08
6096;BME280;25081;42.698;23.298;2023-07-24T03:36:08;95447.12;;;19.94;70.74
6096;BME280;25081;42.698;23.298;2023-07-24T03:38:19;95442.80;;;19.86;71.06
6096;BME280;25081;42.698;23.298;2023-07-24T03:40:29;95441.20;;;19.82;71.15
6096;BME280;25081;42.698;23.298;2023-07-24T03:42:40;95445.52;;;19.98;70.69
6096;BME280;25081;42.698;23.298;2023-07-24T03:44:51;95446.56;;;20.18;70.62
6096;BME280;25081;42.698;23.298;2023-07-24T03:47:01;95441.36;;;20.39;69.37
6096;BME280;25081;42.698;23.298;2023-07-24T03:49:12;95432.18;;;20.30;69.44
6096;BME280;25081;42.698;23.298;2023-07-24T03:51:22;95445.70;;;20.48;69.21
6096;BME280;25081;42.698;23.298;2023-07-24T03:53:34;95448.67;;;20.49;68.66
6096;BME280;25081;42.698;23.298;2023-07-24T03:55:45;95448.97;;;20.29;69.20
6096;BME280;25081;42.698;23.298;2023-07-24T03:57:55;95450.37;;;20.01;70.05
6096;BME280;25081;42.698;23.298;2023-07-24T04:00:08;95442.83;;;19.88;70.72
6096;BME280;25081;42.698;23.298;2023-07-24T04:02:19;95444.98;;;19.81;71.32
6096;BME280;25081;42.698;23.298;2023-07-24T04:04:30;95449.56;;;19.78;71.58
6096;BME280;25081;42.698;23.298;2023-07-24T04:06:40;95452.00;;;19.95;70.88
6096;BME280;25081;42.698;23.298;2023-07-24T04:08:51;95455.23;;;20.12;70.46
6096;BME280;25081;42.698;23.298;2023-07-24T04:11:01;95452.23;;;20.16;70.17
6096;BME280;25081;42.698;23.298;2023-07-24T04:13:12;95457.94;;;20.05;70.54
6096;BME280;25081;42.698;23.298;2023-07-24T04:15:22;95455.52;;;20.00;70.56
6096;BME280;25081;42.698;23.298;2023-07-24T04:17:33;95454.45;;;19.91;71.30
6096;BME280;25081;42.698;23.298;2023-07-24T04:19:43;95464.17;;;19.87;71.64
6096;BME280;25081;42.698;23.298;2023-07-24T04:21:54;95462.03;;;19.82;71.82
6096;BME280;25081;42.698;23.298;2023-07-24T04:24:06;95463.66;;;19.83;72.15
6096;BME280;25081;42.698;23.298;2023-07-24T04:26:16;95464.46;;;19.83;72.22
6096;BME280;25081;42.698;23.298;2023-07-24T04:28:27;95466.34;;;20.08;71.68
6096;BME280;25081;42.698;23.298;2023-07-24T04:30:37;95462.75;;;20.36;70.94
6096;BME280;25081;42.698;23.298;2023-07-24T04:32:48;95468.97;;;20.51;70.39
6096;BME280;25081;42.698;23.298;2023-07-24T04:34:58;95465.93;;;20.71;69.70
6096;BME280;25081;42.698;23.298;2023-07-24T04:37:09;95459.70;;;20.70;69.88
6096;BME280;25081;42.698;23.298;2023-07-24T04:39:19;95456.80;;;20.49;70.38
6096;BME280;25081;42.698;23.298;2023-07-24T04:41:30;95455.13;;;20.55;70.20
6096;BME280;25081;42.698;23.298;2023-07-24T04:43:40;95463.52;;;20.67;70.14
6096;BME280;25081;42.698;23.298;2023-07-24T04:45:51;95463.00;;;21.17;68.25
6096;BME280;25081;42.698;23.298;2023-07-24T04:48:01;95468.38;;;22.00;65.45
6096;BME280;25081;42.698;23.298;2023-07-24T04:50:12;95456.91;;;22.40;64.01
6096;BME280;25081;42.698;23.298;2023-07-24T04:52:22;95456.39;;;23.28;61.72
6096;BME280;25081;42.698;23.298;2023-07-24T04:54:33;95457.55;;;24.11;58.62
6096;BME280;25081;42.698;23.298;2023-07-24T04:56:43;95461.00;;;24.91;54.88
6096;BME280;25081;42.698;23.298;2023-07-24T04:58:54;95457.05;;;25.60;52.73
6096;BME280;25081;42.698;23.298;2023-07-24T05:01:05;95456.88;;;26.13;51.01
6096;BME280;25081;42.698;23.298;2023-07-24T05:03:15;95456.82;;;26.04;51.39
6096;BME280;25081;42.698;23.298;2023-07-24T05:05:26;95453.27;;;26.15;51.35
6096;BME280;25081;42.698;23.298;2023-07-24T05:07:36;95453.22;;;26.17;51.20
6096;BME280;25081;42.698;23.298;2023-07-24T05:09:47;95458.98;;;26.27;51.19
6096;BME280;25081;42.698;23.298;2023-07-24T05:11:58;95459.98;;;26.62;49.69
6096;BME280;25081;42.698;23.298;2023-07-24T05:14:08;95462.43;;;26.52;49.81
6096;BME280;25081;42.698;23.298;2023-07-24T05:16:19;95465.78;;;26.07;51.26
6096;BME280;25081;42.698;23.298;2023-07-24T05:18:29;95457.36;;;26.15;51.37
6096;BME280;25081;42.698;23.298;2023-07-24T05:20:43;95450.77;;;26.49;50.43
6096;BME280;25081;42.698;23.298;2023-07-24T05:22:53;95445.16;;;27.40;48.00
6096;BME280;25081;42.698;23.298;2023-07-24T05:25:05;95447.53;;;27.53;47.06
6096;BME280;25081;42.698;23.298;2023-07-24T05:27:15;95445.03;;;27.62;47.14
6096;BME280;25081;42.698;23.298;2023-07-24T05:29:26;95447.62;;;28.02;46.27
6096;BME280;25081;42.698;23.298;2023-07-24T05:31:36;95452.73;;;28.62;45.41
6096;BME280;25081;42.698;23.298;2023-07-24T05:33:47;95451.84;;;28.40;44.34
6096;BME280;25081;42.698;23.298;2023-07-24T05:35:59;95449.56;;;27.76;46.17
6096;BME280;25081;42.698;23.298;2023-07-24T05:38:10;95445.54;;;27.19;47.81
6096;BME280;25081;42.698;23.298;2023-07-24T05:40:20;95448.05;;;27.89;46.62
6096;BME280;25081;42.698;23.298;2023-07-24T05:42:31;95446.58;;;27.92;45.83
6096;BME280;25081;42.698;23.298;2023-07-24T05:44:42;95441.76;;;27.17;48.03
6096;BME280;25081;42.698;23.298;2023-07-24T05:46:52;95439.87;;;27.44;47.60
6096;BME280;25081;42.698;23.298;2023-07-24T05:49:03;95440.56;;;28.33;45.90
6096;BME280;25081;42.698;23.298;2023-07-24T05:51:14;95436.86;;;28.99;43.48
6096;BME280;25081;42.698;23.298;2023-07-24T05:53:25;95432.90;;;29.74;41.68
6096;BME280;25081;42.698;23.298;2023-07-24T05:55:35;95433.89;;;29.70;41.80
6096;BME280;25081;42.698;23.298;2023-07-24T05:57:46;95431.67;;;28.36;43.78
6096;BME280;25081;42.698;23.298;2023-07-24T05:59:57;95432.44;;;27.27;45.49
6096;BME280;25081;42.698;23.298;2023-07-24T06:02:07;95429.48;;;27.52;45.40
6096;BME280;25081;42.698;23.298;2023-07-24T06:04:19;95430.04;;;26.77;46.83
6096;BME280;25081;42.698;23.298;2023-07-24T06:06:29;95426.84;;;26.92;47.58
6096;BME280;25081;42.698;23.298;2023-07-24T06:08:40;95426.30;;;27.13;47.11
6096;BME280;25081;42.698;23.298;2023-07-24T06:10:50;95419.75;;;27.65;46.34
6096;BME280;25081;42.698;23.298;2023-07-24T06:13:01;95420.66;;;29.57;42.07
6096;BME280;25081;42.698;23.298;2023-07-24T06:15:12;95414.41;;;31.04;37.86
6096;BME280;25081;42.698;23.298;2023-07-24T06:17:22;95419.39;;;28.89;41.38
6096;BME280;25081;42.698;23.298;2023-07-24T06:19:33;95422.17;;;28.16;43.09
6096;BME280;25081;42.698;23.298;2023-07-24T06:21:43;95423.20;;;29.12;41.81
6096;BME280;25081;42.698;23.298;2023-07-24T06:23:54;95425.09;;;29.20;41.73
6096;BME280;25081;42.698;23.298;2023-07-24T06:26:04;95414.70;;;30.42;39.29
6096;BME280;25081;42.698;23.298;2023-07-24T06:28:15;95418.72;;;30.44;39.00
6096;BME280;25081;42.698;23.298;2023-07-24T06:30:25;95413.91;;;31.51;37.03
6096;BME280;25081;42.698;23.298;2023-07-24T06:32:36;95412.26;;;32.31;35.12
6096;BME280;25081;42.698;23.298;2023-07-24T06:34:46;95410.73;;;33.28;33.50
6096;BME280;25081;42.698;23.298;2023-07-24T06:36:57;95419.73;;;34.14;32.15
6096;BME280;25081;42.698;23.298;2023-07-24T06:39:07;95413.29;;;33.97;31.46
6096;BME280;25081;42.698;23.298;2023-07-24T06:41:18;95411.64;;;34.15;31.50
6096;BME280;25081;42.698;23.298;2023-07-24T06:43:28;95411.35;;;33.72;31.98
6096;BME280;25081;42.698;23.298;2023-07-24T06:45:39;95410.56;;;34.39;31.23
6096;BME280;25081;42.698;23.298;2023-07-24T06:47:49;95407.58;;;35.07;29.98
6096;BME280;25081;42.698;23.298;2023-07-24T06:49:59;95404.33;;;34.56;30.46
6096;BME280;25081;42.698;23.298;2023-07-24T06:52:10;95405.29;;;34.44;31.21
6096;BME280;25081;42.698;23.298;2023-07-24T06:54:21;95408.67;;;34.05;31.48
6096;BME280;25081;42.698;23.298;2023-07-24T06:56:31;95414.57;;;33.14;33.38
6096;BME280;25081;42.698;23.298;2023-07-24T06:58:42;95410.36;;;31.91;35.11
6096;BME280;25081;42.698;23.298;2023-07-24T07:00:52;95414.05;;;31.43;35.57
6096;BME280;25081;42.698;23.298;2023-07-24T07:03:03;95416.31;;;31.59;36.79
6096;BME280;25081;42.698;23.298;2023-07-24T07:05:15;95415.63;;;32.78;34.52
6096;BME280;25081;42.698;23.298;2023-07-24T07:07:26;95414.53;;;31.73;36.60
6096;BME280;25081;42.698;23.298;2023-07-24T07:09:36;95419.50;;;30.06;38.95
6096;BME280;25081;42.698;23.298;2023-07-24T07:11:47;95423.83;;;29.53;40.42
6096;BME280;25081;42.698;23.298;2023-07-24T07:13:58;95421.17;;;31.07;37.94
6096;BME280;25081;42.698;23.298;2023-07-24T07:16:08;95418.88;;;31.33;37.48
6096;BME280;25081;42.698;23.298;2023-07-24T07:18:19;95424.58;;;30.10;39.18
6096;BME280;25081;42.698;23.298;2023-07-24T07:20:29;95415.01;;;30.80;38.50
6096;BME280;25081;42.698;23.298;2023-07-24T07:22:40;95412.69;;;32.92;33.74
6096;BME280;25081;42.698;23.298;2023-07-24T07:24:51;95407.53;;;33.00;33.69
6096;BME280;25081;42.698;23.298;2023-07-24T07:27:01;95401.44;;;30.68;36.77
6096;BME280;25081;42.698;23.298;2023-07-24T07:29:12;95397.89;;;31.69;36.25
6096;BME280;25081;42.698;23.298;2023-07-24T07:31:23;95398.02;;;33.78;32.38
6096;BME280;25081;42.698;23.298;2023-07-24T07:33:33;95396.25;;;34.93;30.42
6096;BME280;25081;42.698;23.298;2023-07-24T07:35:44;95392.23;;;35.83;29.41
6096;BME280;25081;42.698;23.298;2023-07-24T07:37:54;95388.54;;;35.89;28.85
6096;BME280;25081;42.698;23.298;2023-07-24T07:40:07;95387.53;;;33.77;31.69
6096;BME280;25081;42.698;23.298;2023-07-24T07:42:17;95396.03;;;32.35;33.99
6096;BME280;25081;42.698;23.298;2023-07-24T07:44:28;95391.45;;;32.33;34.78
6096;BME280;25081;42.698;23.298;2023-07-24T07:46:39;95388.70;;;31.37;35.44
6096;BME280;25081;42.698;23.298;2023-07-24T07:48:49;95388.48;;;30.75;37.06
6096;BME280;25081;42.698;23.298;2023-07-24T07:51:00;95390.15;;;33.00;33.78
6096;BME280;25081;42.698;23.298;2023-07-24T07:53:10;95392.18;;;33.44;32.80
6096;BME280;25081;42.698;23.298;2023-07-24T07:55:21;95382.89;;;33.72;31.52
6096;BME280;25081;42.698;23.298;2023-07-24T07:57:31;95385.72;;;33.75;31.84
6096;BME280;25081;42.698;23.298;2023-07-24T07:59:42;95379.48;;;33.69;32.44
6096;BME280;25081;42.698;23.298;2023-07-24T08:01:52;95377.73;;;34.87;30.73
6096;BME280;25081;42.698;23.298;2023-07-24T08:04:03;95386.11;;;34.45;30.45
6096;BME280;25081;42.698;23.298;2023-07-24T08:06:13;95385.97;;;34.70;29.99
6096;BME280;25081;42.698;23.298;2023-07-24T08:08:24;95391.15;;;33.17;32.24
6096;BME280;25081;42.698;23.298;2023-07-24T08:10:36;95386.20;;;34.49;30.73
6096;BME280;25081;42.698;23.298;2023-07-24T08:12:45;95382.68;;;34.52;30.83
6096;BME280;25081;42.698;23.298;2023-07-24T08:14:56;95385.33;;;34.25;32.23
6096;BME280;25081;42.698;23.298;2023-07-24T08:17:06;95375.31;;;35.35;29.68
6096;BME280;25081;42.698;23.298;2023-07-24T08:19:17;95377.00;;;36.78;27.46
6096;BME280;25081;42.698;23.298;2023-07-24T08:21:28;95367.53;;;35.74;28.37
6096;BME280;25081;42.698;23.298;2023-07-24T08:23:38;95375.17;;;33.62;31.74
6096;BME280;25081;42.698;23.298;2023-07-24T08:25:55;95365.05;;;35.66;28.50
6096;BME280;25081;42.698;23.298;2023-07-24T08:28:05;95356.28;;;36.92;26.90
6096;BME280;25081;42.698;23.298;2023-07-24T08:30:16;95357.14;;;37.00;26.38
6096;BME280;25081;42.698;23.298;2023-07-24T08:32:27;95354.27;;;35.44;29.01
6096;BME280;25081;42.698;23.298;2023-07-24T08:34:37;95349.69;;;35.59;29.22
6096;BME280;25081;42.698;23.298;2023-07-24T08:36:47;95351.08;;;36.26;27.61
6096;BME280;25081;42.698;23.298;2023-07-24T08:38:58;95345.34;;;36.08;27.73
6096;BME280;25081;42.698;23.298;2023-07-24T08:41:09;95343.65;;;35.66;29.08
6096;BME280;25081;42.698;23.298;2023-07-24T08:43:19;95344.13;;;35.02;29.55
6096;BME280;25081;42.698;23.298;2023-07-24T08:45:30;95343.24;;;36.55;27.30
6096;BME280;25081;42.698;23.298;2023-07-24T08:47:42;95338.00;;;37.18;26.30
6096;BME280;25081;42.698;23.298;2023-07-24T08:49:53;95334.56;;;37.77;25.39
6096;BME280;25081;42.698;23.298;2023-07-24T08:52:04;95331.98;;;37.13;26.23
6096;BME280;25081;42.698;23.298;2023-07-24T08:54:15;95337.75;;;37.83;25.67
6096;BME280;25081;42.698;23.298;2023-07-24T08:56:25;95336.19;;;37.93;24.75
6096;BME280;25081;42.698;23.298;2023-07-24T08:58:36;95333.28;;;38.17;24.96
6096;BME280;25081;42.698;23.298;2023-07-24T09:00:46;95329.39;;;35.84;27.45
6096;BME280;25081;42.698;23.298;2023-07-24T09:02:57;95331.89;;;36.30;26.96
6096;BME280;25081;42.698;23.298;2023-07-24T09:05:08;95335.67;;;37.28;25.69
6096;BME280;25081;42.698;23.298;2023-07-24T09:07:18;95332.47;;;38.09;24.69
6096;BME280;25081;42.698;23.298;2023-07-24T09:09:31;95331.37;;;38.56;24.33
6096;BME280;25081;42.698;23.298;2023-07-24T09:11:48;95325.30;;;36.46;25.82
6096;BME280;25081;42.698;23.298;2023-07-24T09:13:58;95327.42;;;36.83;25.77
6096;BME280;25081;42.698;23.298;2023-07-24T09:16:08;95321.48;;;35.70;27.25
6096;BME280;25081;42.698;23.298;2023-07-24T09:18:19;95319.27;;;35.22;27.91
6096;BME280;25081;42.698;23.298;2023-07-24T09:20:37;95314.63;;;35.77;27.91
6096;BME280;25081;42.698;23.298;2023-07-24T09:22:47;95316.41;;;36.29;26.98
6096;BME280;25081;42.698;23.298;2023-07-24T09:24:54;95320.02;;;36.78;25.66
6096;BME280;25081;42.698;23.298;2023-07-24T09:27:06;95311.68;;;35.93;26.77
6096;BME280;25081;42.698;23.298;2023-07-24T09:29:16;95289.77;;;36.25;26.90
6096;BME280;25081;42.698;23.298;2023-07-24T09:31:36;95305.67;;;37.65;25.25
6096;BME280;25081;42.698;23.298;2023-07-24T09:33:46;95300.23;;;38.04;24.62
6096;BME280;25081;42.698;23.298;2023-07-24T09:36:00;95294.41;;;37.37;26.09
6096;BME280;25081;42.698;23.298;2023-07-24T09:38:11;95300.66;;;37.58;25.26
6096;BME280;25081;42.698;23.298;2023-07-24T09:40:21;95297.91;;;36.44;25.53
6096;BME280;25081;42.698;23.298;2023-07-24T09:42:33;95285.52;;;36.14;25.65
6096;BME280;25081;42.698;23.298;2023-07-24T09:44:42;95282.23;;;36.01;26.58
6096;BME280;25081;42.698;23.298;2023-07-24T09:46:53;95273.39;;;35.42;27.93
6096;BME280;25081;42.698;23.298;2023-07-24T09:49:03;95275.78;;;34.73;28.25
6096;BME280;25081;42.698;23.298;2023-07-24T09:51:14;95269.98;;;33.58;29.84
6096;BME280;25081;42.698;23.298;2023-07-24T09:53:32;95264.34;;;35.02;28.29
6096;BME280;25081;42.698;23.298;2023-07-24T09:55:38;95268.42;;;37.15;25.31
6096;BME280;25081;42.698;23.298;2023-07-24T09:57:48;95262.05;;;38.05;24.21
6096;BME280;25081;42.698;23.298;2023-07-24T09:59:58;95263.45;;;37.49;24.96
6096;BME280;25081;42.698;23.298;2023-07-24T10:02:10;95259.70;;;38.64;23.28
6096;BME280;25081;42.698;23.298;2023-07-24T10:04:20;95255.05;;;37.84;23.85
6096;BME280;25081;42.698;23.298;2023-07-24T10:06:31;95251.98;;;35.25;26.87
6096;BME280;25081;42.698;23.298;2023-07-24T10:08:41;95251.88;;;35.65;27.06
6096;BME280;25081;42.698;23.298;2023-07-24T10:10:52;95244.34;;;35.82;27.81
6096;BME280;25081;42.698;23.298;2023-07-24T10:13:02;95244.14;;;37.01;25.64
6096;BME280;25081;42.698;23.298;2023-07-24T10:15:13;95247.13;;;36.47;26.29
6096;BME280;25081;42.698;23.298;2023-07-24T10:17:36;95243.02;;;37.55;24.90
6096;BME280;25081;42.698;23.298;2023-07-24T10:19:46;95239.45;;;37.16;25.09
6096;BME280;25081;42.698;23.298;2023-07-24T10:21:57;95239.61;;;37.06;26.43
6096;BME280;25081;42.698;23.298;2023-07-24T10:24:07;95232.75;;;37.80;25.53
6096;BME280;25081;42.698;23.298;2023-07-24T10:26:23;95224.65;;;38.17;24.72
6096;BME280;25081;42.698;23.298;2023-07-24T10:28:32;95220.59;;;39.14;23.12
6096;BME280;25081;42.698;23.298;2023-07-24T10:30:42;95222.66;;;38.63;24.48
6096;BME280;25081;42.698;23.298;2023-07-24T10:32:53;95213.97;;;39.30;23.40
6096;BME280;25081;42.698;23.298;2023-07-24T10:35:08;95216.30;;;39.42;22.69
6096;BME280;25081;42.698;23.298;2023-07-24T10:37:18;95213.11;;;38.68;24.24
6096;BME280;25081;42.698;23.298;2023-07-24T10:39:36;95210.27;;;39.00;23.86
6096;BME280;25081;42.698;23.298;2023-07-24T10:41:39;95208.66;;;39.03;23.97
6096;BME280;25081;42.698;23.298;2023-07-24T10:43:51;95208.72;;;38.21;24.52
6096;BME280;25081;42.698;23.298;2023-07-24T10:46:01;95217.92;;;37.02;26.31
6096;BME280;25081;42.698;23.298;2023-07-24T10:48:11;95209.19;;;36.69;25.94
6096;BME280;25081;42.698;23.298;2023-07-24T10:50:22;95213.86;;;36.30;26.61
6096;BME280;25081;42.698;23.298;2023-07-24T10:52:33;95199.80;;;36.91;26.09
6096;BME280;25081;42.698;23.298;2023-07-24T10:54:43;95199.55;;;36.52;26.63
6096;BME280;25081;42.698;23.298;2023-07-24T10:56:59;95193.47;;;36.36;26.04
6096;BME280;25081;42.698;23.298;2023-07-24T10:59:10;95190.06;;;36.33;27.76
6096;BME280;25081;42.698;23.298;2023-07-24T11:01:20;95193.56;;;36.81;26.52
6096;BME280;25081;42.698;23.298;2023-07-24T11:03:31;95194.84;;;36.60;26.89
6096;BME280;25081;42.698;23.298;2023-07-24T11:05:41;95190.61;;;36.49;27.40
6096;BME280;25081;42.698;23.298;2023-07-24T11:07:52;95182.64;;;35.79;27.79
6096;BME280;25081;42.698;23.298;2023-07-24T11:10:13;95189.38;;;36.47;27.84
6096;BME280;25081;42.698;23.298;2023-07-24T11:12:15;95174.91;;;35.59;28.25
6096;BME280;25081;42.698;23.298;2023-07-24T11:14:25;95176.70;;;35.07;28.72
6096;BME280;25081;42.698;23.298;2023-07-24T11:16:36;95180.42;;;35.21;28.97
6096;BME280;25081;42.698;23.298;2023-07-24T11:18:47;95171.61;;;35.87;27.49
6096;BME280;25081;42.698;23.298;2023-07-24T11:20:57;95169.64;;;36.62;25.46
6096;BME280;25081;42.698;23.298;2023-07-24T11:23:08;95170.08;;;36.13;26.09
6096;BME280;25081;42.698;23.298;2023-07-24T11:25:18;95163.92;;;36.37;25.45
6096;BME280;25081;42.698;23.298;2023-07-24T11:27:28;95162.08;;;36.04;25.76
6096;BME280;25081;42.698;23.298;2023-07-24T11:29:39;95161.38;;;35.91;26.42
6096;BME280;25081;42.698;23.298;2023-07-24T11:31:54;95158.50;;;34.92;28.43